메인 페이지
METAR-TAF:

METAR-TAF

공항 :

매캐런 국제공항

라스베이거스, 네바다, 미국

위도: 36-04-44N, 경도: 115-09-19W, 고도: 663m

현재 날씨관측

예보는 58분 전, 20:56시(UTC)에 발표되었습니다.
7kt
온도 38°C
습도 21%
기압 1017 hPa
시정: 16.1km
고도 13000ft 상공 구름 조금

METAR: KLAS 222056Z 36007KT 10SM FEW130 38/12 A3002 RMK AO2 SLP133 TCU DSNT NW T03780122 58018 $

시각: 14:54 (21:54 UTC)

예보

예보는 53분 전, 21:01시(UTC)에 발표되었습니다.
예보 대상 시간: 22일 21시부터 23일 24시까지 (UTC)
동남동6kt
시정: 10km
고도 12000ft 상공 구름 조금
23일 0400시부터 (UTC)
남서8kt
시정: 10km
고도 12000ft 상공 구름 조금
고도 25000ft 상공 구름 보통
23일 1000시부터 (UTC)
6kt
시정: 10km
고도 25000ft 상공 구름 보통
23일 1500시부터 (UTC)
여러 방향의 바람 5kt
시정: 10km
고도 25000ft 상공 구름 보통

TAF: KLAS 222101Z 2221/2324 11006KT P6SM FEW120 FM230400 22008KT P6SM FEW120 SCT250 FM231000 28006KT P6SM SCT250 FM231500 VRB05KT P6SM SCT250

4,000개 이상의 공항 관측 자료 및 예보 (METAR 및 TAF 보고).

지도상에서 검색 가능한 기상관측소가 노란 점과 빨간 점으로 표시되어 있습니다.

기상관측소 명을 보려면 표시 위로 마우스를 이동하세요.

날씨 관측과 예보를 보려면 클릭하세요.

지도 변경 : 확대하려면 엑스 표시가 있는 녹색 버튼, 축소하려면 빼기 표시가 있는 녹색 버튼, 다음 페이지의 지도를 보려면 녹색 화살표를 클릭하세요.


METAR-TAF: